Current Weather

Woomera

Woomera, Australia (YPWR)

Report from: Sunday, February 25, 2024 1:30 PM AEDT
Current time: Sunday, February 25, 2024 1:50 PM AEDT

Nearby weather – Weather history – Daily summaries
Weather forecast

Temperature32.0°C (89.6°F)
Heat index29.8°C (85.6°F)
Dew point-1.0°C (30.2°F)
Winds 7 kts (3.6 m/s, 8.1 mph) Vrb
Winds variableWinds variable from South-Southeast (150°) to West-Northwest (300°)
Visibility6.2 mi. (10 km)
Clouds Sky clear
Altimeter29.94 in.Hg (1014 mB)
Relative humidity12 %
Density altitude2,008 ft. (612 m)
Remarks Fully automated report
No clouds detected
Flight conditions Visual Meteorological Conditions
Raw dataYPWR 250230Z AUTO 29007KT 150V300 9999 // NCD 32/M01 Q1014 RF00.0/000.0
An error has occurred. This application may no longer respond until reloaded. Reload 🗙